Terminal Aerodrome Forecast
Issued by NWS

Home | Current Version | Previous Version | Text Only | Print | Product List | Glossary On
Versions: 1 2 3 4 5 6 7 8 9 10 11 12 13
000
FTUS43 KICT 250520
TAFCNU
TAF
KCNU 250520Z 2506/2606 15008KT P6SM FEW090 BKN200 WS020/19040KT
     FM251400 18017G25KT P6SM BKN200
     FM260100 18013KT P6SM VCTS SCT035CB OVC070=

USA.gov is the U.S. government's official web portal to all federal, state and local government web resources and services.